85PA weather

Krumenacker Airport
Carrolltown, Pennsylvania, United States

Public forecast

Using degrees Fahrenheit for public forecast. Weather courtesy of forecast.io.

METAR (pilot weather report)

Closest report is Indiana County/Jimmy Stewart Fld/ Airport, 15.1 nm (27.9 km) W. Retrieved 2019/05/22 14:35 UTC (12 minutes ago):

KIDI 221435Z AUTO 14013G19KT 10SM FEW085 16/04 A3024 RMK A01

TAF (pilot weather forecast)

Closest forecast is John Murtha Johnstown Cambria County Airport, 16.9 nm (31.4 km) S. Retrieved 2019/05/22 12:30 UTC (2 hours ago):

TAF KJST 221128Z 2212/2312 14006KT P6SM SCT250 FM221330 13009KT P6SM OVC250 FM221500 15011G17KT P6SM SCT060 OVC250 FM222200 16009KT P6SM BKN050 BKN150 FM230500 17005KT P6SM -SHRA OVC050